sensor_id;sensor_type;location;lat;lon;timestamp;P1;durP1;ratioP1;P2;durP2;ratioP2
32094;SDS011;18608;53.688;10.748;2023-06-26T00:01:50;13.33;;;11.40;;
32094;SDS011;18608;53.688;10.748;2023-06-26T00:04:16;12.60;;;10.70;;
32094;SDS011;18608;53.688;10.748;2023-06-26T00:06:42;13.70;;;12.40;;
32094;SDS011;18608;53.688;10.748;2023-06-26T00:09:08;14.23;;;10.63;;
32094;SDS011;18608;53.688;10.748;2023-06-26T00:11:34;13.20;;;11.63;;
32094;SDS011;18608;53.688;10.748;2023-06-26T00:14:00;13.27;;;11.87;;
32094;SDS011;18608;53.688;10.748;2023-06-26T00:16:27;15.13;;;12.80;;
32094;SDS011;18608;53.688;10.748;2023-06-26T00:18:53;14.27;;;12.70;;
32094;SDS011;18608;53.688;10.748;2023-06-26T00:21:19;15.43;;;11.93;;
32094;SDS011;18608;53.688;10.748;2023-06-26T00:23:45;26.53;;;14.27;;
32094;SDS011;18608;53.688;10.748;2023-06-26T00:26:11;14.47;;;12.10;;
32094;SDS011;18608;53.688;10.748;2023-06-26T00:28:37;20.77;;;13.90;;
32094;SDS011;18608;53.688;10.748;2023-06-26T00:31:03;14.83;;;13.10;;
32094;SDS011;18608;53.688;10.748;2023-06-26T00:33:29;16.13;;;13.47;;
32094;SDS011;18608;53.688;10.748;2023-06-26T00:35:56;17.80;;;13.97;;
32094;SDS011;18608;53.688;10.748;2023-06-26T00:38:22;15.70;;;14.00;;
32094;SDS011;18608;53.688;10.748;2023-06-26T00:40:48;19.10;;;13.20;;
32094;SDS011;18608;53.688;10.748;2023-06-26T00:43:14;19.53;;;14.40;;
32094;SDS011;18608;53.688;10.748;2023-06-26T00:45:40;18.40;;;13.40;;
32094;SDS011;18608;53.688;10.748;2023-06-26T00:48:06;16.53;;;13.50;;
32094;SDS011;18608;53.688;10.748;2023-06-26T00:50:32;15.13;;;13.10;;
32094;SDS011;18608;53.688;10.748;2023-06-26T00:52:58;16.43;;;14.30;;
32094;SDS011;18608;53.688;10.748;2023-06-26T00:55:26;18.20;;;14.23;;
32094;SDS011;18608;53.688;10.748;2023-06-26T00:57:52;15.70;;;14.00;;
32094;SDS011;18608;53.688;10.748;2023-06-26T01:00:19;15.20;;;13.70;;
32094;SDS011;18608;53.688;10.748;2023-06-26T01:02:45;17.40;;;12.63;;
32094;SDS011;18608;53.688;10.748;2023-06-26T01:05:12;14.07;;;12.67;;
32094;SDS011;18608;53.688;10.748;2023-06-26T01:07:47;17.40;;;13.37;;
32094;SDS011;18608;53.688;10.748;2023-06-26T01:10:14;15.93;;;14.17;;
32094;SDS011;18608;53.688;10.748;2023-06-26T01:12:40;18.83;;;14.27;;
32094;SDS011;18608;53.688;10.748;2023-06-26T01:15:07;18.00;;;14.17;;
32094;SDS011;18608;53.688;10.748;2023-06-26T01:17:33;20.77;;;15.00;;
32094;SDS011;18608;53.688;10.748;2023-06-26T01:20:00;16.40;;;13.33;;
32094;SDS011;18608;53.688;10.748;2023-06-26T01:22:50;28.60;;;14.83;;
32094;SDS011;18608;53.688;10.748;2023-06-26T01:28:07;23.50;;;14.90;;
32094;SDS011;18608;53.688;10.748;2023-06-26T01:30:34;17.63;;;13.53;;
32094;SDS011;18608;53.688;10.748;2023-06-26T01:33:08;14.77;;;12.17;;
32094;SDS011;18608;53.688;10.748;2023-06-26T01:35:35;14.30;;;12.57;;
32094;SDS011;18608;53.688;10.748;2023-06-26T01:38:11;18.07;;;14.83;;
32094;SDS011;18608;53.688;10.748;2023-06-26T01:40:39;15.80;;;13.27;;
32094;SDS011;18608;53.688;10.748;2023-06-26T01:43:06;17.53;;;13.63;;
32094;SDS011;18608;53.688;10.748;2023-06-26T01:45:44;21.10;;;14.30;;
32094;SDS011;18608;53.688;10.748;2023-06-26T01:48:13;15.33;;;13.73;;
32094;SDS011;18608;53.688;10.748;2023-06-26T01:50:41;17.13;;;14.30;;
32094;SDS011;18608;53.688;10.748;2023-06-26T01:53:12;16.33;;;14.03;;
32094;SDS011;18608;53.688;10.748;2023-06-26T01:55:46;19.27;;;13.70;;
32094;SDS011;18608;53.688;10.748;2023-06-26T01:58:17;19.30;;;14.37;;
32094;SDS011;18608;53.688;10.748;2023-06-26T02:00:47;15.83;;;14.23;;
32094;SDS011;18608;53.688;10.748;2023-06-26T02:03:13;16.60;;;14.53;;
32094;SDS011;18608;53.688;10.748;2023-06-26T02:05:39;19.10;;;14.80;;
32094;SDS011;18608;53.688;10.748;2023-06-26T02:08:06;17.53;;;15.67;;
32094;SDS011;18608;53.688;10.748;2023-06-26T02:10:33;18.50;;;13.87;;
32094;SDS011;18608;53.688;10.748;2023-06-26T02:13:00;14.93;;;13.00;;
32094;SDS011;18608;53.688;10.748;2023-06-26T02:15:26;31.20;;;14.70;;
32094;SDS011;18608;53.688;10.748;2023-06-26T02:17:52;17.13;;;14.13;;
32094;SDS011;18608;53.688;10.748;2023-06-26T02:20:18;17.70;;;15.53;;
32094;SDS011;18608;53.688;10.748;2023-06-26T02:22:44;17.50;;;13.03;;
32094;SDS011;18608;53.688;10.748;2023-06-26T02:25:10;15.97;;;14.27;;
32094;SDS011;18608;53.688;10.748;2023-06-26T02:27:37;17.00;;;14.07;;
32094;SDS011;18608;53.688;10.748;2023-06-26T02:30:04;18.10;;;14.73;;
32094;SDS011;18608;53.688;10.748;2023-06-26T02:32:30;20.00;;;13.77;;
32094;SDS011;18608;53.688;10.748;2023-06-26T02:34:56;17.07;;;14.60;;
32094;SDS011;18608;53.688;10.748;2023-06-26T02:37:22;20.07;;;14.10;;
32094;SDS011;18608;53.688;10.748;2023-06-26T02:39:48;16.90;;;14.23;;
32094;SDS011;18608;53.688;10.748;2023-06-26T02:42:14;16.37;;;13.60;;
32094;SDS011;18608;53.688;10.748;2023-06-26T02:44:40;16.17;;;14.40;;
32094;SDS011;18608;53.688;10.748;2023-06-26T02:47:06;17.47;;;14.23;;
32094;SDS011;18608;53.688;10.748;2023-06-26T02:49:32;15.50;;;14.00;;
32094;SDS011;18608;53.688;10.748;2023-06-26T02:51:58;16.17;;;14.03;;
32094;SDS011;18608;53.688;10.748;2023-06-26T02:54:24;16.40;;;14.27;;
32094;SDS011;18608;53.688;10.748;2023-06-26T02:56:50;21.77;;;15.60;;
32094;SDS011;18608;53.688;10.748;2023-06-26T02:59:16;19.07;;;13.60;;
32094;SDS011;18608;53.688;10.748;2023-06-26T03:01:43;24.93;;;14.73;;
32094;SDS011;18608;53.688;10.748;2023-06-26T03:04:09;18.37;;;13.27;;
32094;SDS011;18608;53.688;10.748;2023-06-26T03:06:35;20.27;;;13.10;;
32094;SDS011;18608;53.688;10.748;2023-06-26T03:09:01;18.90;;;12.53;;
32094;SDS011;18608;53.688;10.748;2023-06-26T03:11:28;15.73;;;12.83;;
32094;SDS011;18608;53.688;10.748;2023-06-26T03:13:54;25.93;;;13.83;;
32094;SDS011;18608;53.688;10.748;2023-06-26T03:16:21;17.83;;;13.70;;
32094;SDS011;18608;53.688;10.748;2023-06-26T03:18:46;16.80;;;13.70;;
32094;SDS011;18608;53.688;10.748;2023-06-26T03:21:12;16.33;;;13.67;;
32094;SDS011;18608;53.688;10.748;2023-06-26T03:23:38;14.10;;;12.60;;
32094;SDS011;18608;53.688;10.748;2023-06-26T03:26:05;14.60;;;12.30;;
32094;SDS011;18608;53.688;10.748;2023-06-26T03:28:31;14.77;;;12.27;;
32094;SDS011;18608;53.688;10.748;2023-06-26T03:30:57;13.13;;;11.77;;
32094;SDS011;18608;53.688;10.748;2023-06-26T03:33:23;15.33;;;13.63;;
32094;SDS011;18608;53.688;10.748;2023-06-26T03:35:49;13.77;;;11.80;;
32094;SDS011;18608;53.688;10.748;2023-06-26T03:38:15;16.23;;;13.33;;
32094;SDS011;18608;53.688;10.748;2023-06-26T03:40:41;16.87;;;12.43;;
32094;SDS011;18608;53.688;10.748;2023-06-26T03:43:07;17.63;;;12.30;;
32094;SDS011;18608;53.688;10.748;2023-06-26T03:45:33;14.40;;;12.57;;
32094;SDS011;18608;53.688;10.748;2023-06-26T03:47:59;14.43;;;12.77;;
32094;SDS011;18608;53.688;10.748;2023-06-26T03:50:25;14.77;;;11.87;;
32094;SDS011;18608;53.688;10.748;2023-06-26T03:52:51;13.20;;;11.10;;
32094;SDS011;18608;53.688;10.748;2023-06-26T03:55:19;12.87;;;11.23;;
32094;SDS011;18608;53.688;10.748;2023-06-26T03:57:47;19.13;;;12.87;;
32094;SDS011;18608;53.688;10.748;2023-06-26T04:00:14;13.50;;;10.40;;
32094;SDS011;18608;53.688;10.748;2023-06-26T04:02:40;13.50;;;11.27;;
32094;SDS011;18608;53.688;10.748;2023-06-26T04:05:06;14.80;;;11.00;;
32094;SDS011;18608;53.688;10.748;2023-06-26T04:07:32;14.97;;;12.00;;
32094;SDS011;18608;53.688;10.748;2023-06-26T04:09:59;14.60;;;11.83;;
32094;SDS011;18608;53.688;10.748;2023-06-26T04:12:25;11.93;;;10.53;;
32094;SDS011;18608;53.688;10.748;2023-06-26T04:14:51;13.47;;;12.07;;
32094;SDS011;18608;53.688;10.748;2023-06-26T04:17:18;17.13;;;12.07;;
32094;SDS011;18608;53.688;10.748;2023-06-26T04:19:44;12.43;;;11.20;;
32094;SDS011;18608;53.688;10.748;2023-06-26T04:22:11;19.30;;;12.27;;
32094;SDS011;18608;53.688;10.748;2023-06-26T04:24:37;13.20;;;10.43;;
32094;SDS011;18608;53.688;10.748;2023-06-26T04:27:03;15.90;;;10.97;;
32094;SDS011;18608;53.688;10.748;2023-06-26T04:29:30;15.83;;;11.67;;
32094;SDS011;18608;53.688;10.748;2023-06-26T04:31:56;17.47;;;10.83;;
32094;SDS011;18608;53.688;10.748;2023-06-26T04:34:26;15.50;;;11.47;;
32094;SDS011;18608;53.688;10.748;2023-06-26T04:36:52;16.67;;;10.50;;
32094;SDS011;18608;53.688;10.748;2023-06-26T04:39:18;12.60;;;11.17;;
32094;SDS011;18608;53.688;10.748;2023-06-26T04:41:45;18.43;;;12.40;;
32094;SDS011;18608;53.688;10.748;2023-06-26T04:44:11;15.03;;;9.80;;
32094;SDS011;18608;53.688;10.748;2023-06-26T04:46:37;15.93;;;11.23;;
32094;SDS011;18608;53.688;10.748;2023-06-26T04:49:09;12.10;;;10.90;;
32094;SDS011;18608;53.688;10.748;2023-06-26T04:51:35;14.40;;;11.67;;
32094;SDS011;18608;53.688;10.748;2023-06-26T04:54:08;12.70;;;10.27;;
32094;SDS011;18608;53.688;10.748;2023-06-26T04:56:35;16.27;;;11.30;;
32094;SDS011;18608;53.688;10.748;2023-06-26T04:59:02;15.83;;;9.77;;
32094;SDS011;18608;53.688;10.748;2023-06-26T05:01:28;16.30;;;11.67;;
32094;SDS011;18608;53.688;10.748;2023-06-26T05:03:55;11.30;;;10.20;;
32094;SDS011;18608;53.688;10.748;2023-06-26T05:06:21;16.90;;;11.57;;
32094;SDS011;18608;53.688;10.748;2023-06-26T05:08:47;14.40;;;10.70;;
32094;SDS011;18608;53.688;10.748;2023-06-26T05:11:13;12.67;;;10.37;;
32094;SDS011;18608;53.688;10.748;2023-06-26T05:13:40;15.30;;;10.37;;
32094;SDS011;18608;53.688;10.748;2023-06-26T05:16:06;12.70;;;10.03;;
32094;SDS011;18608;53.688;10.748;2023-06-26T05:18:34;10.20;;;9.30;;
32094;SDS011;18608;53.688;10.748;2023-06-26T05:21:00;13.80;;;9.57;;
32094;SDS011;18608;53.688;10.748;2023-06-26T05:23:26;10.83;;;9.80;;
32094;SDS011;18608;53.688;10.748;2023-06-26T05:25:53;16.10;;;10.10;;
32094;SDS011;18608;53.688;10.748;2023-06-26T05:28:19;17.80;;;9.33;;
32094;SDS011;18608;53.688;10.748;2023-06-26T05:30:45;12.67;;;9.37;;
32094;SDS011;18608;53.688;10.748;2023-06-26T05:33:12;19.10;;;9.93;;
32094;SDS011;18608;53.688;10.748;2023-06-26T05:35:42;11.97;;;9.50;;
32094;SDS011;18608;53.688;10.748;2023-06-26T05:38:10;12.83;;;10.20;;
32094;SDS011;18608;53.688;10.748;2023-06-26T05:40:39;10.20;;;8.67;;
32094;SDS011;18608;53.688;10.748;2023-06-26T05:43:05;12.50;;;9.33;;
32094;SDS011;18608;53.688;10.748;2023-06-26T05:45:32;13.57;;;9.53;;
32094;SDS011;18608;53.688;10.748;2023-06-26T05:47:58;14.87;;;11.00;;
32094;SDS011;18608;53.688;10.748;2023-06-26T05:50:24;10.70;;;9.60;;
32094;SDS011;18608;53.688;10.748;2023-06-26T05:52:50;10.20;;;9.13;;
32094;SDS011;18608;53.688;10.748;2023-06-26T05:55:17;13.57;;;10.03;;
32094;SDS011;18608;53.688;10.748;2023-06-26T05:57:43;12.10;;;9.70;;
32094;SDS011;18608;53.688;10.748;2023-06-26T06:00:10;10.73;;;9.70;;
32094;SDS011;18608;53.688;10.748;2023-06-26T06:02:37;8.77;;;7.97;;
32094;SDS011;18608;53.688;10.748;2023-06-26T06:05:03;9.33;;;8.40;;
32094;SDS011;18608;53.688;10.748;2023-06-26T06:07:30;9.70;;;7.83;;
32094;SDS011;18608;53.688;10.748;2023-06-26T06:10:00;11.57;;;8.23;;
32094;SDS011;18608;53.688;10.748;2023-06-26T06:12:27;9.50;;;8.60;;
32094;SDS011;18608;53.688;10.748;2023-06-26T06:14:54;9.57;;;8.33;;
32094;SDS011;18608;53.688;10.748;2023-06-26T06:17:20;13.70;;;9.07;;
32094;SDS011;18608;53.688;10.748;2023-06-26T06:19:46;13.37;;;8.93;;
32094;SDS011;18608;53.688;10.748;2023-06-26T06:22:12;11.33;;;9.57;;
32094;SDS011;18608;53.688;10.748;2023-06-26T06:24:39;9.13;;;8.13;;
32094;SDS011;18608;53.688;10.748;2023-06-26T06:27:05;16.80;;;7.93;;
32094;SDS011;18608;53.688;10.748;2023-06-26T06:29:31;10.13;;;7.93;;
32094;SDS011;18608;53.688;10.748;2023-06-26T06:31:57;10.60;;;7.57;;
32094;SDS011;18608;53.688;10.748;2023-06-26T06:34:23;12.40;;;7.77;;
32094;SDS011;18608;53.688;10.748;2023-06-26T06:36:49;20.43;;;8.90;;
32094;SDS011;18608;53.688;10.748;2023-06-26T06:39:15;8.47;;;7.57;;
32094;SDS011;18608;53.688;10.748;2023-06-26T06:41:41;11.63;;;8.27;;
32094;SDS011;18608;53.688;10.748;2023-06-26T06:44:07;9.43;;;7.50;;
32094;SDS011;18608;53.688;10.748;2023-06-26T06:46:33;9.20;;;8.30;;
32094;SDS011;18608;53.688;10.748;2023-06-26T06:49:00;9.60;;;7.67;;
32094;SDS011;18608;53.688;10.748;2023-06-26T06:51:26;9.17;;;8.23;;
32094;SDS011;18608;53.688;10.748;2023-06-26T06:53:52;8.70;;;7.87;;
32094;SDS011;18608;53.688;10.748;2023-06-26T06:56:18;8.73;;;7.83;;
32094;SDS011;18608;53.688;10.748;2023-06-26T06:58:44;8.30;;;7.50;;
32094;SDS011;18608;53.688;10.748;2023-06-26T07:01:14;12.63;;;8.13;;
32094;SDS011;18608;53.688;10.748;2023-06-26T07:03:40;10.60;;;7.50;;
32094;SDS011;18608;53.688;10.748;2023-06-26T07:06:06;10.40;;;7.50;;
32094;SDS011;18608;53.688;10.748;2023-06-26T07:08:32;11.00;;;7.23;;
32094;SDS011;18608;53.688;10.748;2023-06-26T07:10:58;7.27;;;6.63;;
32094;SDS011;18608;53.688;10.748;2023-06-26T07:13:25;9.63;;;7.50;;
32094;SDS011;18608;53.688;10.748;2023-06-26T07:15:50;8.07;;;6.70;;
32094;SDS011;18608;53.688;10.748;2023-06-26T07:18:17;11.90;;;7.33;;
32094;SDS011;18608;53.688;10.748;2023-06-26T07:20:43;8.83;;;7.93;;
32094;SDS011;18608;53.688;10.748;2023-06-26T07:23:09;8.67;;;7.77;;
32094;SDS011;18608;53.688;10.748;2023-06-26T07:25:35;13.13;;;7.30;;
32094;SDS011;18608;53.688;10.748;2023-06-26T07:28:01;7.67;;;6.87;;
32094;SDS011;18608;53.688;10.748;2023-06-26T07:30:28;7.80;;;6.90;;
32094;SDS011;18608;53.688;10.748;2023-06-26T07:32:54;8.60;;;7.60;;
32094;SDS011;18608;53.688;10.748;2023-06-26T07:35:20;7.73;;;6.93;;
32094;SDS011;18608;53.688;10.748;2023-06-26T07:37:45;8.87;;;6.20;;
32094;SDS011;18608;53.688;10.748;2023-06-26T07:40:11;9.93;;;7.10;;
32094;SDS011;18608;53.688;10.748;2023-06-26T07:42:38;7.57;;;6.77;;
32094;SDS011;18608;53.688;10.748;2023-06-26T07:45:05;7.67;;;6.77;;
32094;SDS011;18608;53.688;10.748;2023-06-26T07:47:36;7.23;;;6.43;;
32094;SDS011;18608;53.688;10.748;2023-06-26T07:50:02;19.00;;;7.67;;
32094;SDS011;18608;53.688;10.748;2023-06-26T07:52:28;11.83;;;7.77;;
32094;SDS011;18608;53.688;10.748;2023-06-26T07:54:58;7.47;;;6.73;;
32094;SDS011;18608;53.688;10.748;2023-06-26T07:57:24;7.13;;;6.47;;
32094;SDS011;18608;53.688;10.748;2023-06-26T07:59:50;6.70;;;6.03;;
32094;SDS011;18608;53.688;10.748;2023-06-26T08:02:16;6.37;;;5.80;;
32094;SDS011;18608;53.688;10.748;2023-06-26T08:04:43;8.73;;;7.83;;
32094;SDS011;18608;53.688;10.748;2023-06-26T08:07:09;10.47;;;7.40;;
32094;SDS011;18608;53.688;10.748;2023-06-26T08:09:35;7.70;;;6.60;;
32094;SDS011;18608;53.688;10.748;2023-06-26T08:12:02;7.13;;;6.43;;
32094;SDS011;18608;53.688;10.748;2023-06-26T08:14:28;8.07;;;6.77;;
32094;SDS011;18608;53.688;10.748;2023-06-26T08:16:54;8.83;;;6.87;;
32094;SDS011;18608;53.688;10.748;2023-06-26T08:19:20;8.43;;;6.57;;
32094;SDS011;18608;53.688;10.748;2023-06-26T08:21:47;8.40;;;6.93;;
32094;SDS011;18608;53.688;10.748;2023-06-26T08:24:13;7.13;;;6.43;;
32094;SDS011;18608;53.688;10.748;2023-06-26T08:26:41;6.87;;;6.27;;
32094;SDS011;18608;53.688;10.748;2023-06-26T08:29:08;8.57;;;7.50;;
32094;SDS011;18608;53.688;10.748;2023-06-26T08:31:34;11.67;;;6.83;;
32094;SDS011;18608;53.688;10.748;2023-06-26T08:34:01;17.07;;;6.07;;
32094;SDS011;18608;53.688;10.748;2023-06-26T08:36:28;7.10;;;6.40;;
32094;SDS011;18608;53.688;10.748;2023-06-26T08:38:54;7.00;;;6.30;;
32094;SDS011;18608;53.688;10.748;2023-06-26T08:41:20;8.37;;;6.17;;
32094;SDS011;18608;53.688;10.748;2023-06-26T08:43:46;12.50;;;7.20;;
32094;SDS011;18608;53.688;10.748;2023-06-26T08:46:12;6.83;;;6.27;;
32094;SDS011;18608;53.688;10.748;2023-06-26T08:48:39;7.30;;;6.60;;
32094;SDS011;18608;53.688;10.748;2023-06-26T08:51:11;8.73;;;7.43;;
32094;SDS011;18608;53.688;10.748;2023-06-26T08:53:49;8.33;;;6.60;;
32094;SDS011;18608;53.688;10.748;2023-06-26T08:56:21;8.30;;;7.10;;
32094;SDS011;18608;53.688;10.748;2023-06-26T08:58:49;8.90;;;8.00;;
32094;SDS011;18608;53.688;10.748;2023-06-26T09:01:16;7.10;;;6.40;;
32094;SDS011;18608;53.688;10.748;2023-06-26T09:03:44;12.57;;;7.20;;
32094;SDS011;18608;53.688;10.748;2023-06-26T09:06:10;8.40;;;7.60;;
32094;SDS011;18608;53.688;10.748;2023-06-26T09:08:36;12.87;;;6.80;;
32094;SDS011;18608;53.688;10.748;2023-06-26T09:11:02;7.50;;;6.80;;
32094;SDS011;18608;53.688;10.748;2023-06-26T09:13:28;7.47;;;6.77;;
32094;SDS011;18608;53.688;10.748;2023-06-26T09:15:55;8.93;;;6.83;;
32094;SDS011;18608;53.688;10.748;2023-06-26T09:18:21;7.40;;;6.73;;
32094;SDS011;18608;53.688;10.748;2023-06-26T09:20:47;7.73;;;6.10;;
32094;SDS011;18608;53.688;10.748;2023-06-26T09:23:13;9.70;;;8.37;;
32094;SDS011;18608;53.688;10.748;2023-06-26T09:25:40;6.57;;;6.00;;
32094;SDS011;18608;53.688;10.748;2023-06-26T09:28:06;8.40;;;6.90;;
32094;SDS011;18608;53.688;10.748;2023-06-26T09:30:33;14.70;;;6.77;;
32094;SDS011;18608;53.688;10.748;2023-06-26T09:33:15;18.37;;;6.40;;
32094;SDS011;18608;53.688;10.748;2023-06-26T09:35:45;7.57;;;6.80;;
32094;SDS011;18608;53.688;10.748;2023-06-26T09:38:12;10.33;;;6.67;;
32094;SDS011;18608;53.688;10.748;2023-06-26T09:40:39;7.03;;;6.33;;
32094;SDS011;18608;53.688;10.748;2023-06-26T09:43:06;12.53;;;7.27;;
32094;SDS011;18608;53.688;10.748;2023-06-26T09:45:33;7.67;;;6.60;;
32094;SDS011;18608;53.688;10.748;2023-06-26T09:48:00;7.67;;;6.87;;
32094;SDS011;18608;53.688;10.748;2023-06-26T09:50:28;7.93;;;6.23;;
32094;SDS011;18608;53.688;10.748;2023-06-26T09:52:55;7.53;;;6.83;;
32094;SDS011;18608;53.688;10.748;2023-06-26T09:55:21;8.57;;;7.50;;
32094;SDS011;18608;53.688;10.748;2023-06-26T09:57:47;11.53;;;7.03;;
32094;SDS011;18608;53.688;10.748;2023-06-26T10:00:16;12.67;;;7.70;;
32094;SDS011;18608;53.688;10.748;2023-06-26T10:02:42;8.73;;;7.53;;
32094;SDS011;18608;53.688;10.748;2023-06-26T10:05:08;8.93;;;7.87;;
32094;SDS011;18608;53.688;10.748;2023-06-26T10:07:35;8.17;;;7.37;;
32094;SDS011;18608;53.688;10.748;2023-06-26T10:10:02;9.80;;;7.40;;
32094;SDS011;18608;53.688;10.748;2023-06-26T10:12:29;9.33;;;7.20;;
32094;SDS011;18608;53.688;10.748;2023-06-26T10:14:56;12.80;;;8.57;;
32094;SDS011;18608;53.688;10.748;2023-06-26T10:17:24;8.10;;;7.23;;
32094;SDS011;18608;53.688;10.748;2023-06-26T10:19:54;10.80;;;8.67;;
32094;SDS011;18608;53.688;10.748;2023-06-26T10:22:25;8.93;;;7.83;;
32094;SDS011;18608;53.688;10.748;2023-06-26T10:24:55;9.60;;;8.60;;
32094;SDS011;18608;53.688;10.748;2023-06-26T10:27:24;10.77;;;8.80;;
32094;SDS011;18608;53.688;10.748;2023-06-26T10:29:53;37.97;;;11.20;;
32094;SDS011;18608;53.688;10.748;2023-06-26T10:32:22;16.63;;;11.27;;
32094;SDS011;18608;53.688;10.748;2023-06-26T10:34:50;16.23;;;11.83;;
32094;SDS011;18608;53.688;10.748;2023-06-26T10:37:16;27.27;;;16.00;;
32094;SDS011;18608;53.688;10.748;2023-06-26T10:39:46;23.00;;;17.00;;
32094;SDS011;18608;53.688;10.748;2023-06-26T10:42:17;28.00;;;17.70;;
32094;SDS011;18608;53.688;10.748;2023-06-26T10:44:44;21.63;;;15.97;;
32094;SDS011;18608;53.688;10.748;2023-06-26T10:47:12;19.50;;;14.77;;
32094;SDS011;18608;53.688;10.748;2023-06-26T10:49:53;18.03;;;13.70;;
32094;SDS011;18608;53.688;10.748;2023-06-26T10:52:19;12.70;;;11.37;;
32094;SDS011;18608;53.688;10.748;2023-06-26T10:54:45;20.93;;;10.27;;
32094;SDS011;18608;53.688;10.748;2023-06-26T10:57:11;13.30;;;9.87;;
32094;SDS011;18608;53.688;10.748;2023-06-26T10:59:49;12.57;;;9.20;;
32094;SDS011;18608;53.688;10.748;2023-06-26T11:02:49;10.83;;;8.80;;
32094;SDS011;18608;53.688;10.748;2023-06-26T11:05:29;25.67;;;10.87;;
32094;SDS011;18608;53.688;10.748;2023-06-26T11:10:49;20.30;;;11.70;;
32094;SDS011;18608;53.688;10.748;2023-06-26T11:13:20;11.70;;;10.43;;
32094;SDS011;18608;53.688;10.748;2023-06-26T11:15:47;19.77;;;12.50;;
32094;SDS011;18608;53.688;10.748;2023-06-26T11:18:15;18.30;;;11.87;;
32094;SDS011;18608;53.688;10.748;2023-06-26T11:20:41;16.87;;;13.00;;
32094;SDS011;18608;53.688;10.748;2023-06-26T11:23:07;23.77;;;14.37;;
32094;SDS011;18608;53.688;10.748;2023-06-26T11:25:35;24.20;;;16.93;;
32094;SDS011;18608;53.688;10.748;2023-06-26T11:28:02;24.33;;;16.60;;
32094;SDS011;18608;53.688;10.748;2023-06-26T11:30:34;22.63;;;16.63;;
32094;SDS011;18608;53.688;10.748;2023-06-26T11:33:04;34.43;;;17.87;;
32094;SDS011;18608;53.688;10.748;2023-06-26T11:35:31;32.80;;;20.47;;
32094;SDS011;18608;53.688;10.748;2023-06-26T11:37:57;33.47;;;21.53;;
32094;SDS011;18608;53.688;10.748;2023-06-26T11:40:25;29.70;;;21.13;;
32094;SDS011;18608;53.688;10.748;2023-06-26T11:42:57;30.67;;;21.67;;
32094;SDS011;18608;53.688;10.748;2023-06-26T11:45:24;31.97;;;22.07;;
32094;SDS011;18608;53.688;10.748;2023-06-26T11:47:50;34.13;;;20.37;;
32094;SDS011;18608;53.688;10.748;2023-06-26T11:50:17;26.60;;;20.27;;
32094;SDS011;18608;53.688;10.748;2023-06-26T11:52:43;21.37;;;16.40;;
32094;SDS011;18608;53.688;10.748;2023-06-26T11:55:09;19.47;;;14.60;;
32094;SDS011;18608;53.688;10.748;2023-06-26T11:57:36;23.80;;;17.20;;
32094;SDS011;18608;53.688;10.748;2023-06-26T12:00:14;23.63;;;16.00;;
32094;SDS011;18608;53.688;10.748;2023-06-26T12:02:41;21.03;;;16.40;;
32094;SDS011;18608;53.688;10.748;2023-06-26T12:05:07;21.50;;;15.23;;
32094;SDS011;18608;53.688;10.748;2023-06-26T12:07:34;22.30;;;15.33;;
32094;SDS011;18608;53.688;10.748;2023-06-26T12:10:02;21.50;;;16.20;;
32094;SDS011;18608;53.688;10.748;2023-06-26T12:12:29;26.57;;;16.20;;
32094;SDS011;18608;53.688;10.748;2023-06-26T12:14:56;27.50;;;16.47;;
32094;SDS011;18608;53.688;10.748;2023-06-26T12:17:23;32.23;;;17.83;;
32094;SDS011;18608;53.688;10.748;2023-06-26T12:19:50;21.80;;;15.57;;
32094;SDS011;18608;53.688;10.748;2023-06-26T12:22:16;23.03;;;14.00;;
32094;SDS011;18608;53.688;10.748;2023-06-26T12:24:43;22.70;;;15.00;;
32094;SDS011;18608;53.688;10.748;2023-06-26T12:27:10;20.03;;;14.50;;
32094;SDS011;18608;53.688;10.748;2023-06-26T12:29:40;16.20;;;13.00;;
32094;SDS011;18608;53.688;10.748;2023-06-26T12:32:12;17.10;;;11.83;;
32094;SDS011;18608;53.688;10.748;2023-06-26T12:34:39;14.03;;;11.77;;
32094;SDS011;18608;53.688;10.748;2023-06-26T12:37:07;22.27;;;8.57;;
32094;SDS011;18608;53.688;10.748;2023-06-26T12:42:26;9.00;;;6.73;;
32094;SDS011;18608;53.688;10.748;2023-06-26T12:44:53;9.87;;;4.53;;
32094;SDS011;18608;53.688;10.748;2023-06-26T12:47:26;8.20;;;3.80;;
32094;SDS011;18608;53.688;10.748;2023-06-26T12:49:53;8.87;;;3.20;;
32094;SDS011;18608;53.688;10.748;2023-06-26T12:52:20;12.80;;;3.53;;
32094;SDS011;18608;53.688;10.748;2023-06-26T12:54:46;4.93;;;4.00;;
32094;SDS011;18608;53.688;10.748;2023-06-26T12:57:16;5.47;;;3.20;;
32094;SDS011;18608;53.688;10.748;2023-06-26T12:59:42;9.90;;;3.30;;
32094;SDS011;18608;53.688;10.748;2023-06-26T13:02:09;12.10;;;3.37;;
32094;SDS011;18608;53.688;10.748;2023-06-26T13:04:38;11.10;;;2.90;;
32094;SDS011;18608;53.688;10.748;2023-06-26T13:07:09;4.97;;;2.80;;
32094;SDS011;18608;53.688;10.748;2023-06-26T13:09:35;7.60;;;2.47;;
32094;SDS011;18608;53.688;10.748;2023-06-26T13:12:02;7.80;;;2.70;;
32094;SDS011;18608;53.688;10.748;2023-06-26T13:14:31;7.10;;;2.73;;
32094;SDS011;18608;53.688;10.748;2023-06-26T13:16:57;10.60;;;2.83;;
32094;SDS011;18608;53.688;10.748;2023-06-26T13:19:23;10.03;;;3.67;;
32094;SDS011;18608;53.688;10.748;2023-06-26T13:21:49;5.87;;;2.90;;
32094;SDS011;18608;53.688;10.748;2023-06-26T13:24:15;3.47;;;2.30;;
32094;SDS011;18608;53.688;10.748;2023-06-26T13:26:41;8.93;;;2.63;;
32094;SDS011;18608;53.688;10.748;2023-06-26T13:29:08;3.20;;;2.90;;
32094;SDS011;18608;53.688;10.748;2023-06-26T13:31:34;12.60;;;2.80;;
32094;SDS011;18608;53.688;10.748;2023-06-26T13:34:01;8.53;;;3.00;;
32094;SDS011;18608;53.688;10.748;2023-06-26T13:36:28;4.70;;;2.70;;
32094;SDS011;18608;53.688;10.748;2023-06-26T13:38:54;4.70;;;4.10;;
32094;SDS011;18608;53.688;10.748;2023-06-26T13:41:23;9.87;;;2.80;;
32094;SDS011;18608;53.688;10.748;2023-06-26T13:43:50;4.13;;;2.33;;
32094;SDS011;18608;53.688;10.748;2023-06-26T13:46:16;14.33;;;2.90;;
32094;SDS011;18608;53.688;10.748;2023-06-26T13:48:43;8.63;;;2.70;;
32094;SDS011;18608;53.688;10.748;2023-06-26T13:51:09;9.90;;;3.40;;
32094;SDS011;18608;53.688;10.748;2023-06-26T13:53:35;9.23;;;2.77;;
32094;SDS011;18608;53.688;10.748;2023-06-26T13:56:01;3.10;;;2.77;;
32094;SDS011;18608;53.688;10.748;2023-06-26T13:58:28;10.23;;;2.53;;
32094;SDS011;18608;53.688;10.748;2023-06-26T14:00:57;6.40;;;2.40;;
32094;SDS011;18608;53.688;10.748;2023-06-26T14:03:23;8.60;;;2.43;;
32094;SDS011;18608;53.688;10.748;2023-06-26T14:05:49;4.07;;;2.20;;
32094;SDS011;18608;53.688;10.748;2023-06-26T14:08:15;3.30;;;2.13;;
32094;SDS011;18608;53.688;10.748;2023-06-26T14:10:41;4.43;;;2.00;;
32094;SDS011;18608;53.688;10.748;2023-06-26T14:13:07;13.37;;;2.57;;
32094;SDS011;18608;53.688;10.748;2023-06-26T14:15:34;4.63;;;2.90;;
32094;SDS011;18608;53.688;10.748;2023-06-26T14:18:01;4.17;;;2.30;;
32094;SDS011;18608;53.688;10.748;2023-06-26T14:20:27;11.40;;;2.30;;
32094;SDS011;18608;53.688;10.748;2023-06-26T14:22:54;7.00;;;2.30;;
32094;SDS011;18608;53.688;10.748;2023-06-26T14:25:20;5.97;;;2.60;;
32094;SDS011;18608;53.688;10.748;2023-06-26T14:27:46;2.50;;;2.03;;